createdAt,value
2022-12-27T00:00:34.887Z,19.55
2022-12-27T00:03:02.132Z,19.75
2022-12-27T00:05:29.341Z,20.70
2022-12-27T00:07:56.467Z,22.25
2022-12-27T00:10:23.629Z,22.35
2022-12-27T00:12:50.815Z,19.95
2022-12-27T00:15:17.996Z,19.23
2022-12-27T00:17:45.088Z,19.77
2022-12-27T00:20:12.400Z,19.77
2022-12-27T00:22:40.039Z,20.17
2022-12-27T00:25:07.341Z,21.92
2022-12-27T00:27:34.502Z,21.33
2022-12-27T00:30:01.571Z,22.08
2022-12-27T00:32:28.691Z,21.58
2022-12-27T00:34:56.181Z,21.55
2022-12-27T00:37:23.319Z,20.15
2022-12-27T00:39:50.443Z,17.65
2022-12-27T00:42:17.591Z,19.13
2022-12-27T00:44:44.741Z,17.02
2022-12-27T00:47:11.854Z,18.25
2022-12-27T00:49:39.025Z,18.83
2022-12-27T00:52:06.128Z,20.38
2022-12-27T00:54:33.228Z,22.63
2022-12-27T00:57:00.381Z,21.77
2022-12-27T00:59:27.542Z,18.50
2022-12-27T01:01:54.750Z,20.50
2022-12-27T01:04:22.035Z,21.73
2022-12-27T01:06:49.119Z,27.38
2022-12-27T01:09:16.194Z,29.08
2022-12-27T01:11:43.343Z,27.42
2022-12-27T01:14:10.539Z,28.48
2022-12-27T01:16:38.455Z,28.60
2022-12-27T01:19:05.654Z,27.52
2022-12-27T01:21:32.747Z,22.40
2022-12-27T01:23:59.925Z,22.58
2022-12-27T01:26:27.073Z,20.83
2022-12-27T01:28:54.528Z,25.58
2022-12-27T01:31:22.806Z,22.05
2022-12-27T01:33:50.055Z,20.13
2022-12-27T01:36:21.062Z,21.15
2022-12-27T01:38:48.752Z,18.30
2022-12-27T01:41:39.339Z,21.40
2022-12-27T01:44:24.979Z,20.40
2022-12-27T01:46:52.179Z,20.48
2022-12-27T01:49:19.276Z,19.70
2022-12-27T01:51:46.369Z,22.10
2022-12-27T01:54:13.595Z,19.52
2022-12-27T01:56:40.745Z,18.73
2022-12-27T01:59:09.014Z,19.75
2022-12-27T02:01:39.141Z,22.77
2022-12-27T02:04:13.183Z,20.58
2022-12-27T02:06:40.648Z,21.13
2022-12-27T02:09:16.246Z,20.67
2022-12-27T02:11:55.166Z,22.33
2022-12-27T02:14:28.575Z,21.88
2022-12-27T02:16:56.862Z,22.50
2022-12-27T02:19:56.404Z,19.13
2022-12-27T02:22:23.552Z,19.92
2022-12-27T02:24:59.807Z,20.02
2022-12-27T02:27:37.943Z,21.50
2022-12-27T02:30:06.807Z,21.60
2022-12-27T02:32:46.475Z,24.85
2022-12-27T02:35:16.684Z,22.20
2022-12-27T02:37:55.814Z,19.30
2022-12-27T02:40:43.378Z,18.00
2022-12-27T02:43:29.847Z,23.23
2022-12-27T02:46:38.565Z,22.75
2022-12-27T02:49:42.446Z,25.30
2022-12-27T02:52:36.474Z,21.90
2022-12-27T02:55:12.065Z,23.42
2022-12-27T02:57:47.734Z,22.98
2022-12-27T03:00:36.215Z,27.05
2022-12-27T03:03:23.647Z,22.73
2022-12-27T03:06:18.646Z,22.33
2022-12-27T03:08:58.361Z,27.08
2022-12-27T03:11:45.773Z,24.80
2022-12-27T03:14:37.500Z,23.80
2022-12-27T03:17:10.256Z,27.67
2022-12-27T03:20:03.603Z,24.33
2022-12-27T03:22:50.205Z,26.85
2022-12-27T03:25:29.806Z,24.48
2022-12-27T03:28:17.927Z,24.08
2022-12-27T03:31:04.871Z,23.58
2022-12-27T03:33:32.951Z,23.05
2022-12-27T03:36:21.613Z,25.33
2022-12-27T03:38:53.380Z,25.45
2022-12-27T03:41:59.468Z,23.70
2022-12-27T03:44:26.898Z,26.50
2022-12-27T03:47:08.169Z,24.70
2022-12-27T03:49:38.538Z,24.38
2022-12-27T03:52:05.603Z,27.17
2022-12-27T03:54:35.341Z,25.65
2022-12-27T03:57:13.551Z,23.63
2022-12-27T03:59:40.824Z,26.85
2022-12-27T04:02:08.447Z,23.60
2022-12-27T04:04:35.698Z,29.45
2022-12-27T04:07:02.811Z,24.50
2022-12-27T04:09:48.822Z,26.25
2022-12-27T04:12:34.860Z,23.60
2022-12-27T04:15:20.912Z,23.63
2022-12-27T04:18:07.019Z,22.77
2022-12-27T04:20:53.002Z,23.83
2022-12-27T04:23:38.926Z,23.70
2022-12-27T04:26:25.079Z,24.60
2022-12-27T04:29:11.015Z,24.35
2022-12-27T04:31:57.158Z,23.60
2022-12-27T04:34:42.634Z,25.92
2022-12-27T04:37:19.838Z,23.73
2022-12-27T04:40:06.370Z,29.10
2022-12-27T04:42:52.200Z,27.70
2022-12-27T04:45:37.911Z,30.13
2022-12-27T04:48:24.018Z,29.13
2022-12-27T04:51:09.997Z,32.97
2022-12-27T04:53:55.881Z,35.17
2022-12-27T04:56:22.970Z,32.47
2022-12-27T04:59:08.507Z,32.97
2022-12-27T05:01:54.445Z,30.70
2022-12-27T05:04:21.663Z,31.17
2022-12-27T05:06:48.787Z,30.83
2022-12-27T05:09:34.460Z,32.00
2022-12-27T05:12:20.556Z,30.80
2022-12-27T05:14:47.728Z,34.53
2022-12-27T05:17:14.876Z,38.90
2022-12-27T05:19:41.938Z,37.17
2022-12-27T05:22:27.857Z,35.90
2022-12-27T05:25:13.701Z,34.03
2022-12-27T05:27:40.854Z,43.35
2022-12-27T05:30:08.241Z,46.15
2022-12-27T05:32:35.334Z,44.00
2022-12-27T05:35:02.481Z,42.95
2022-12-27T05:37:29.560Z,39.78
2022-12-27T05:39:56.634Z,45.63
2022-12-27T05:42:23.762Z,43.13
2022-12-27T05:44:50.833Z,42.33
2022-12-27T05:47:17.923Z,47.10
2022-12-27T05:49:45.079Z,49.47
2022-12-27T05:52:12.183Z,44.25
2022-12-27T05:54:39.290Z,48.00
2022-12-27T05:57:06.435Z,53.55
2022-12-27T05:59:33.518Z,55.40
2022-12-27T06:02:01.648Z,53.50
2022-12-27T06:04:29.030Z,48.85
2022-12-27T06:06:56.206Z,53.10
2022-12-27T06:09:23.360Z,56.03
2022-12-27T06:11:50.510Z,56.65
2022-12-27T06:14:17.600Z,62.10
2022-12-27T06:16:44.729Z,59.97
2022-12-27T06:19:11.939Z,56.50
2022-12-27T06:21:39.325Z,59.15
2022-12-27T06:24:06.527Z,59.22
2022-12-27T06:26:34.011Z,59.67
2022-12-27T06:29:01.109Z,70.25
2022-12-27T06:31:28.560Z,71.72
2022-12-27T06:33:56.152Z,81.38
2022-12-27T06:36:24.650Z,70.00
2022-12-27T06:38:51.736Z,76.40
2022-12-27T06:41:19.180Z,83.68
2022-12-27T06:43:46.984Z,75.28
2022-12-27T06:46:17.820Z,75.93
2022-12-27T06:51:13.544Z,72.50
2022-12-27T06:53:40.695Z,74.28
2022-12-27T06:56:09.193Z,77.88
2022-12-27T06:58:36.316Z,79.32
2022-12-27T07:01:10.430Z,84.95
2022-12-27T07:03:37.579Z,87.78
2022-12-27T07:06:05.364Z,83.72
2022-12-27T07:08:32.724Z,87.38
2022-12-27T07:11:00.836Z,88.97
2022-12-27T07:13:28.083Z,88.95
2022-12-27T07:15:55.333Z,91.05
2022-12-27T07:18:22.436Z,99.60
2022-12-27T07:20:49.506Z,121.35
2022-12-27T07:23:19.388Z,99.32
2022-12-27T07:25:46.701Z,94.25
2022-12-27T07:28:13.814Z,99.10
2022-12-27T07:30:41.965Z,92.32
2022-12-27T07:33:09.508Z,104.88
2022-12-27T07:35:40.802Z,104.63
2022-12-27T07:38:10.684Z,101.97
2022-12-27T07:40:37.927Z,91.28
2022-12-27T07:43:05.089Z,116.13
2022-12-27T07:45:33.065Z,113.13
2022-12-27T07:48:00.259Z,114.13
2022-12-27T07:50:27.447Z,101.10
2022-12-27T07:52:54.611Z,114.30
2022-12-27T07:55:21.702Z,103.75
2022-12-27T07:57:48.830Z,105.60
2022-12-27T08:00:16.448Z,109.60
2022-12-27T08:02:43.597Z,120.05
2022-12-27T08:05:10.737Z,117.40
2022-12-27T08:07:38.702Z,120.40
2022-12-27T08:10:06.256Z,124.70
2022-12-27T08:12:33.335Z,109.13
2022-12-27T08:15:00.522Z,116.85
2022-12-27T08:17:28.303Z,120.28
2022-12-27T08:19:55.875Z,106.45
2022-12-27T08:22:23.922Z,115.97
2022-12-27T08:24:51.199Z,115.65
2022-12-27T08:27:22.324Z,136.07
2022-12-27T08:29:49.472Z,118.00
2022-12-27T08:32:17.001Z,123.25
2022-12-27T08:34:44.131Z,115.30
2022-12-27T08:37:11.345Z,110.97
2022-12-27T08:39:38.411Z,133.95
2022-12-27T08:42:05.516Z,137.13
2022-12-27T08:44:32.651Z,121.03
2022-12-27T08:46:59.753Z,119.15
2022-12-27T08:49:26.928Z,129.43
2022-12-27T08:51:54.067Z,104.97
2022-12-27T08:54:21.349Z,112.97
2022-12-27T08:56:48.445Z,113.68
2022-12-27T08:59:15.606Z,130.65
2022-12-27T09:01:42.937Z,110.07
2022-12-27T09:04:10.095Z,112.90
2022-12-27T09:06:37.267Z,111.10
2022-12-27T09:09:04.411Z,95.45
2022-12-27T09:11:33.155Z,106.15
2022-12-27T09:14:04.829Z,97.05
2022-12-27T09:16:34.080Z,109.22
2022-12-27T09:19:01.309Z,98.18
2022-12-27T09:21:29.948Z,101.82
2022-12-27T09:23:57.165Z,104.82
2022-12-27T09:26:26.230Z,87.15
2022-12-27T09:28:53.766Z,88.93
2022-12-27T09:31:21.544Z,96.47
2022-12-27T09:33:48.747Z,101.95
2022-12-27T09:36:17.504Z,94.35
2022-12-27T09:38:45.212Z,91.47
2022-12-27T09:42:25.968Z,88.85
2022-12-27T09:44:32.718Z,93.95
2022-12-27T09:47:05.424Z,94.35
2022-12-27T09:49:38.566Z,87.25
2022-12-27T09:52:08.341Z,88.95
2022-12-27T09:54:40.203Z,84.00
2022-12-27T09:57:22.070Z,79.20
2022-12-27T09:59:50.270Z,83.50
2022-12-27T10:02:25.026Z,80.50
2022-12-27T10:05:19.298Z,80.90
2022-12-27T10:07:48.967Z,83.03
2022-12-27T10:10:16.100Z,83.90
2022-12-27T10:12:52.561Z,74.38
2022-12-27T10:15:25.168Z,87.03
2022-12-27T10:18:07.479Z,81.93
2022-12-27T10:20:55.601Z,74.80
2022-12-27T10:23:27.345Z,82.10
2022-12-27T10:25:58.130Z,88.03
2022-12-27T10:28:29.017Z,81.18
2022-12-27T10:30:56.425Z,82.93
2022-12-27T10:33:29.496Z,82.70
2022-12-27T10:35:57.309Z,75.85
2022-12-27T10:38:24.621Z,82.55
2022-12-27T10:41:14.867Z,71.80
2022-12-27T10:43:43.353Z,74.97
2022-12-27T10:46:12.820Z,78.35
2022-12-27T10:49:11.235Z,76.90
2022-12-27T10:51:28.435Z,75.43
2022-12-27T10:53:59.665Z,76.35
2022-12-27T10:56:29.611Z,67.47
2022-12-27T10:59:06.051Z,71.93
2022-12-27T11:01:33.867Z,80.55
2022-12-27T11:04:23.534Z,75.85
2022-12-27T11:06:51.875Z,71.15
2022-12-27T11:09:50.138Z,77.80
2022-12-27T11:12:17.693Z,67.82
2022-12-27T11:15:05.746Z,71.88
2022-12-27T11:17:52.603Z,71.53
2022-12-27T11:20:25.541Z,71.70
2022-12-27T11:22:58.574Z,69.68
2022-12-27T11:25:27.711Z,73.00
2022-12-27T11:27:56.310Z,66.70
2022-12-27T11:30:29.725Z,65.63
2022-12-27T11:32:58.286Z,67.65
2022-12-27T11:35:25.455Z,70.88
2022-12-27T11:37:52.795Z,66.82
2022-12-27T11:40:25.082Z,65.22
2022-12-27T11:42:54.161Z,62.97
2022-12-27T11:45:22.953Z,63.72
2022-12-27T11:48:14.207Z,63.35
2022-12-27T11:50:45.820Z,61.92
2022-12-27T11:53:29.788Z,62.00
2022-12-27T11:56:06.216Z,67.07
2022-12-27T11:58:42.588Z,73.50
2022-12-27T12:01:28.081Z,78.90
2022-12-27T12:04:11.146Z,81.88
2022-12-27T12:06:38.440Z,70.80
2022-12-27T12:09:11.511Z,72.55
2022-12-27T12:11:38.609Z,63.50
2022-12-27T12:14:24.267Z,103.85
2022-12-27T12:16:51.388Z,79.47
2022-12-27T12:19:21.385Z,72.45
2022-12-27T12:22:07.108Z,78.63
2022-12-27T12:24:43.625Z,77.07
2022-12-27T12:27:18.412Z,70.03
2022-12-27T12:29:48.346Z,65.95
2022-12-27T12:32:18.262Z,68.25
2022-12-27T12:35:04.052Z,68.93
2022-12-27T12:37:46.599Z,73.50
2022-12-27T12:40:38.646Z,81.13
2022-12-27T12:43:26.394Z,81.20
2022-12-27T12:46:01.382Z,74.18
2022-12-27T12:48:31.697Z,78.80
2022-12-27T12:51:14.581Z,73.30
2022-12-27T12:53:57.116Z,73.60
2022-12-27T12:56:43.312Z,72.85
2022-12-27T12:59:10.471Z,70.82
2022-12-27T13:01:37.621Z,73.55
2022-12-27T13:04:24.167Z,80.70
2022-12-27T13:06:51.231Z,79.30
2022-12-27T13:09:21.445Z,84.53
2022-12-27T13:12:07.303Z,83.80
2022-12-27T16:32:16.644Z,3.83
2022-12-27T16:34:44.776Z,3.25
2022-12-27T16:37:23.924Z,4.00
2022-12-27T16:40:07.385Z,3.55
2022-12-27T16:43:00.744Z,1.63
2022-12-27T16:45:30.885Z,1.95
2022-12-27T16:48:03.924Z,3.05
2022-12-27T16:50:40.486Z,4.40
2022-12-27T16:53:11.193Z,5.65
2022-12-27T16:55:56.341Z,4.57
2022-12-27T16:58:25.699Z,3.53
2022-12-27T17:00:54.873Z,3.78
2022-12-27T17:03:21.953Z,4.10
2022-12-27T17:06:30.076Z,4.60
2022-12-27T17:08:37.579Z,5.90
2022-12-27T17:11:25.027Z,4.20
2022-12-27T17:13:56.939Z,3.88
2022-12-27T17:16:25.354Z,5.38
2022-12-27T17:18:57.973Z,4.68
2022-12-27T17:21:30.453Z,6.47
2022-12-27T17:24:17.167Z,4.32
2022-12-27T17:27:02.616Z,3.95
2022-12-27T17:29:35.919Z,4.55
2022-12-27T17:32:13.588Z,4.22
2022-12-27T17:34:51.138Z,4.30
2022-12-27T17:37:24.082Z,4.80
2022-12-27T17:39:57.737Z,5.00
2022-12-27T17:42:52.540Z,4.72
2022-12-27T17:45:31.220Z,7.40
2022-12-27T17:48:06.858Z,10.45
2022-12-27T17:50:36.110Z,5.65
2022-12-27T17:53:31.154Z,4.97
2022-12-27T17:56:37.016Z,5.40
2022-12-27T17:59:04.189Z,4.95
2022-12-27T18:01:34.011Z,6.63
2022-12-27T18:04:01.302Z,5.30
2022-12-27T18:06:30.597Z,5.25
2022-12-27T18:08:57.996Z,9.30
2022-12-27T18:11:33.352Z,7.68
2022-12-27T18:14:00.745Z,9.57
2022-12-27T18:16:36.246Z,7.22
2022-12-27T18:19:03.474Z,7.97
2022-12-27T18:21:30.734Z,10.05
2022-12-27T18:23:58.046Z,9.63
2022-12-27T18:26:38.440Z,9.88
2022-12-27T18:29:06.150Z,11.70
2022-12-27T18:31:36.923Z,11.95
2022-12-27T18:34:08.770Z,11.98
2022-12-27T18:36:46.300Z,8.13
2022-12-27T18:39:23.611Z,14.10
2022-12-27T18:41:52.521Z,8.15
2022-12-27T18:44:26.848Z,10.55
2022-12-27T18:46:56.016Z,6.80
2022-12-27T18:49:33.592Z,9.43
2022-12-27T18:52:01.331Z,11.13
2022-12-27T18:54:28.462Z,14.15
2022-12-27T18:56:56.795Z,14.00
2022-12-27T18:59:28.976Z,8.75
2022-12-27T19:01:57.799Z,12.80
2022-12-27T19:04:26.640Z,10.55
2022-12-27T19:07:08.956Z,9.68
2022-12-27T19:09:56.651Z,12.45
2022-12-27T19:12:34.162Z,11.98
2022-12-27T19:15:02.143Z,8.68
2022-12-27T19:17:31.138Z,9.20
2022-12-27T19:20:02.947Z,10.02
2022-12-27T19:22:43.479Z,11.15
2022-12-27T19:25:24.850Z,8.40
2022-12-27T19:27:59.429Z,9.73
2022-12-27T19:30:30.930Z,11.43
2022-12-27T19:32:58.154Z,11.65
2022-12-27T19:35:25.289Z,9.38
2022-12-27T19:37:52.563Z,9.20
2022-12-27T19:40:19.658Z,8.38
2022-12-27T19:42:46.953Z,10.10
2022-12-27T19:45:15.403Z,8.93
2022-12-27T19:47:42.534Z,9.35
2022-12-27T19:50:10.579Z,8.82
2022-12-27T19:52:37.743Z,11.45
2022-12-27T19:55:09.193Z,8.95
2022-12-27T19:57:36.357Z,9.50
2022-12-27T20:00:10.427Z,10.20
2022-12-27T20:02:39.637Z,8.10
2022-12-27T20:05:07.119Z,10.38
2022-12-27T20:07:34.265Z,10.68
2022-12-27T20:10:01.510Z,4.95
2022-12-27T20:12:28.818Z,8.13
2022-12-27T20:14:55.940Z,8.75
2022-12-27T20:17:23.088Z,7.05
2022-12-27T20:19:51.738Z,8.82
2022-12-27T20:22:18.852Z,8.10
2022-12-27T20:24:47.171Z,11.75
2022-12-27T20:27:14.402Z,9.95
2022-12-27T20:29:41.507Z,10.52
2022-12-27T20:32:08.678Z,9.35
2022-12-27T20:34:35.881Z,8.90
2022-12-27T20:37:03.183Z,7.55
2022-12-27T20:39:30.248Z,9.95
2022-12-27T20:41:57.490Z,7.07
2022-12-27T20:44:24.635Z,10.45
2022-12-27T20:46:51.719Z,10.55
2022-12-27T20:49:18.847Z,7.38
2022-12-27T20:51:46.003Z,5.35
2022-12-27T20:54:13.986Z,8.95
2022-12-27T20:56:41.234Z,8.02
2022-12-27T20:59:08.368Z,7.65
2022-12-27T21:01:35.602Z,9.52
2022-12-27T21:04:04.052Z,9.05
2022-12-27T21:06:31.393Z,7.68
2022-12-27T21:08:58.797Z,9.20
2022-12-27T21:11:27.461Z,7.78
2022-12-27T21:13:55.268Z,11.07
2022-12-27T21:16:23.574Z,8.77
2022-12-27T21:18:51.003Z,8.93
2022-12-27T21:21:20.026Z,11.60
2022-12-27T21:23:47.234Z,10.88
2022-12-27T21:26:21.645Z,9.95
2022-12-27T21:28:48.999Z,9.32
2022-12-27T21:31:16.963Z,9.43
2022-12-27T21:33:44.365Z,9.88
2022-12-27T21:36:13.570Z,8.45
2022-12-27T21:38:40.893Z,9.52
2022-12-27T21:41:10.542Z,5.90
2022-12-27T21:43:37.718Z,9.52
2022-12-27T21:46:06.668Z,8.63
2022-12-27T21:48:33.925Z,9.80
2022-12-27T21:51:07.515Z,7.03
2022-12-27T21:53:34.779Z,7.40
2022-12-27T21:56:02.186Z,4.93
2022-12-27T21:58:37.143Z,9.40
2022-12-27T22:01:09.294Z,10.15
2022-12-27T22:03:38.715Z,7.90
2022-12-27T22:06:12.223Z,10.82
2022-12-27T22:08:39.916Z,5.43
2022-12-27T22:11:07.115Z,7.72
2022-12-27T22:13:34.297Z,9.43
2022-12-27T22:16:02.874Z,6.40
2022-12-27T22:18:31.446Z,5.57
2022-12-27T22:21:02.511Z,8.75
2022-12-27T22:23:33.708Z,9.25
2022-12-27T22:26:01.146Z,9.60
2022-12-27T22:28:28.629Z,13.10
2022-12-27T22:30:55.847Z,7.70
2022-12-27T22:33:23.024Z,9.52
2022-12-27T22:35:50.142Z,9.93
2022-12-27T22:38:17.293Z,9.75
2022-12-27T22:40:46.126Z,11.38
2022-12-27T22:43:13.632Z,11.77
2022-12-27T22:45:46.509Z,7.35
2022-12-27T22:48:17.497Z,11.27
2022-12-27T22:50:44.641Z,12.57
2022-12-27T22:53:11.715Z,11.65
2022-12-27T22:55:41.121Z,11.73
2022-12-27T22:58:08.262Z,9.82
2022-12-27T23:00:35.363Z,10.63
2022-12-27T23:03:02.449Z,8.05
2022-12-27T23:05:29.612Z,12.07
2022-12-27T23:08:04.789Z,8.25
2022-12-27T23:10:34.126Z,7.90
2022-12-27T23:13:01.250Z,12.07
2022-12-27T23:15:28.343Z,12.85
2022-12-27T23:17:55.491Z,13.40
2022-12-27T23:20:22.583Z,7.32
2022-12-27T23:22:49.692Z,9.15
2022-12-27T23:25:16.955Z,10.02
2022-12-27T23:27:44.051Z,9.88
2022-12-27T23:30:11.579Z,9.70
2022-12-27T23:32:38.719Z,11.10
2022-12-27T23:35:06.035Z,7.45
2022-12-27T23:37:33.188Z,13.15
2022-12-27T23:40:00.323Z,9.07
2022-12-27T23:42:27.539Z,10.63
2022-12-27T23:44:54.712Z,13.35
2022-12-27T23:47:21.860Z,10.70
2022-12-27T23:49:48.946Z,11.82
2022-12-27T23:52:16.314Z,7.25
2022-12-27T23:54:43.520Z,10.15
2022-12-27T23:57:20.590Z,6.10
2022-12-27T23:59:49.805Z,14.23
